sensor_id;sensor_type;location;lat;lon;timestamp;temperature;humidity
83102;SHT31;72973;51.784;4.660;2024-03-06T00:02:06;8.74;82.65
83102;SHT31;72973;51.784;4.660;2024-03-06T00:04:33;8.72;82.48
83102;SHT31;72973;51.784;4.660;2024-03-06T00:07:00;8.67;82.65
83102;SHT31;72973;51.784;4.660;2024-03-06T00:09:27;8.67;82.70
83102;SHT31;72973;51.784;4.660;2024-03-06T00:11:54;8.71;82.67
83102;SHT31;72973;51.784;4.660;2024-03-06T00:14:21;8.68;82.80
83102;SHT31;72973;51.784;4.660;2024-03-06T00:16:51;8.67;82.86
83102;SHT31;72973;51.784;4.660;2024-03-06T00:19:18;8.68;82.85
83102;SHT31;72973;51.784;4.660;2024-03-06T00:21:45;8.71;82.91
83102;SHT31;72973;51.784;4.660;2024-03-06T00:24:14;8.67;82.82
83102;SHT31;72973;51.784;4.660;2024-03-06T00:26:42;8.70;82.63
83102;SHT31;72973;51.784;4.660;2024-03-06T00:29:09;8.72;82.62
83102;SHT31;72973;51.784;4.660;2024-03-06T00:31:36;8.67;82.57
83102;SHT31;72973;51.784;4.660;2024-03-06T00:34:03;8.65;82.67
83102;SHT31;72973;51.784;4.660;2024-03-06T00:36:29;8.68;82.69
83102;SHT31;72973;51.784;4.660;2024-03-06T00:38:56;8.72;82.42
83102;SHT31;72973;51.784;4.660;2024-03-06T00:41:22;8.67;82.38
83102;SHT31;72973;51.784;4.660;2024-03-06T00:43:49;8.65;82.43
83102;SHT31;72973;51.784;4.660;2024-03-06T00:46:16;8.67;82.25
83102;SHT31;72973;51.784;4.660;2024-03-06T00:48:43;8.60;81.97
83102;SHT31;72973;51.784;4.660;2024-03-06T00:51:09;8.51;82.09
83102;SHT31;72973;51.784;4.660;2024-03-06T00:53:35;8.44;81.93
83102;SHT31;72973;51.784;4.660;2024-03-06T00:56:03;8.29;81.41
83102;SHT31;72973;51.784;4.660;2024-03-06T00:58:29;8.13;81.20
83102;SHT31;72973;51.784;4.660;2024-03-06T01:00:55;7.99;81.24
83102;SHT31;72973;51.784;4.660;2024-03-06T01:03:23;7.88;81.35
83102;SHT31;72973;51.784;4.660;2024-03-06T01:05:50;7.72;81.11
83102;SHT31;72973;51.784;4.660;2024-03-06T01:08:19;7.58;81.03
83102;SHT31;72973;51.784;4.660;2024-03-06T01:10:45;7.48;81.30
83102;SHT31;72973;51.784;4.660;2024-03-06T01:13:12;7.37;81.27
83102;SHT31;72973;51.784;4.660;2024-03-06T01:15:38;7.28;81.23
83102;SHT31;72973;51.784;4.660;2024-03-06T01:18:05;7.17;81.18
83102;SHT31;72973;51.784;4.660;2024-03-06T01:20:31;7.06;81.28
83102;SHT31;72973;51.784;4.660;2024-03-06T01:22:57;6.98;81.52
83102;SHT31;72973;51.784;4.660;2024-03-06T01:25:24;6.93;81.62
83102;SHT31;72973;51.784;4.660;2024-03-06T01:27:51;6.93;82.58
83102;SHT31;72973;51.784;4.660;2024-03-06T01:30:17;6.96;83.08
83102;SHT31;72973;51.784;4.660;2024-03-06T01:32:44;6.93;82.47
83102;SHT31;72973;51.784;4.660;2024-03-06T01:35:10;6.82;81.90
83102;SHT31;72973;51.784;4.660;2024-03-06T01:37:37;6.67;81.69
83102;SHT31;72973;51.784;4.660;2024-03-06T01:40:03;6.58;81.69
83102;SHT31;72973;51.784;4.660;2024-03-06T01:42:30;6.47;81.70
83102;SHT31;72973;51.784;4.660;2024-03-06T01:44:57;6.44;81.98
83102;SHT31;72973;51.784;4.660;2024-03-06T01:47:23;6.38;81.93
83102;SHT31;72973;51.784;4.660;2024-03-06T01:49:50;6.33;81.78
83102;SHT31;72973;51.784;4.660;2024-03-06T01:52:19;6.27;81.85
83102;SHT31;72973;51.784;4.660;2024-03-06T01:54:48;6.23;81.87
83102;SHT31;72973;51.784;4.660;2024-03-06T01:57:17;6.19;81.86
83102;SHT31;72973;51.784;4.660;2024-03-06T01:59:43;6.13;81.86
83102;SHT31;72973;51.784;4.660;2024-03-06T02:02:10;6.10;81.93
83102;SHT31;72973;51.784;4.660;2024-03-06T02:04:40;6.07;82.09
83102;SHT31;72973;51.784;4.660;2024-03-06T02:07:10;5.99;82.09
83102;SHT31;72973;51.784;4.660;2024-03-06T02:09:38;5.98;82.16
83102;SHT31;72973;51.784;4.660;2024-03-06T02:12:05;5.99;82.29
83102;SHT31;72973;51.784;4.660;2024-03-06T02:14:35;5.93;82.78
83102;SHT31;72973;51.784;4.660;2024-03-06T02:17:01;5.95;82.79
83102;SHT31;72973;51.784;4.660;2024-03-06T02:19:43;6.02;82.99
83102;SHT31;72973;51.784;4.660;2024-03-06T02:22:10;5.96;82.50
83102;SHT31;72973;51.784;4.660;2024-03-06T02:24:37;5.96;82.26
83102;SHT31;72973;51.784;4.660;2024-03-06T02:27:04;5.88;82.36
83102;SHT31;72973;51.784;4.660;2024-03-06T02:29:32;5.83;82.70
83102;SHT31;72973;51.784;4.660;2024-03-06T02:31:59;5.86;82.81
83102;SHT31;72973;51.784;4.660;2024-03-06T02:34:28;5.86;82.56
83102;SHT31;72973;51.784;4.660;2024-03-06T02:36:56;5.82;82.40
83102;SHT31;72973;51.784;4.660;2024-03-06T02:39:23;5.75;82.14
83102;SHT31;72973;51.784;4.660;2024-03-06T02:41:49;5.73;82.54
83102;SHT31;72973;51.784;4.660;2024-03-06T02:44:15;5.69;82.31
83102;SHT31;72973;51.784;4.660;2024-03-06T02:46:50;5.68;82.26
83102;SHT31;72973;51.784;4.660;2024-03-06T02:49:18;5.66;82.32
83102;SHT31;72973;51.784;4.660;2024-03-06T02:51:44;5.62;82.30
83102;SHT31;72973;51.784;4.660;2024-03-06T02:54:11;5.58;82.31
83102;SHT31;72973;51.784;4.660;2024-03-06T02:56:37;5.55;82.21
83102;SHT31;72973;51.784;4.660;2024-03-06T02:59:04;5.52;82.74
83102;SHT31;72973;51.784;4.660;2024-03-06T03:01:30;5.55;82.78
83102;SHT31;72973;51.784;4.660;2024-03-06T03:03:57;5.54;82.66
83102;SHT31;72973;51.784;4.660;2024-03-06T03:06:23;5.52;82.69
83102;SHT31;72973;51.784;4.660;2024-03-06T03:08:52;5.54;82.63
83102;SHT31;72973;51.784;4.660;2024-03-06T03:11:19;5.51;82.48
83102;SHT31;72973;51.784;4.660;2024-03-06T03:13:45;5.50;82.41
83102;SHT31;72973;51.784;4.660;2024-03-06T03:16:19;5.51;82.61
83102;SHT31;72973;51.784;4.660;2024-03-06T03:18:46;5.54;83.01
83102;SHT31;72973;51.784;4.660;2024-03-06T03:21:14;5.59;83.26
83102;SHT31;72973;51.784;4.660;2024-03-06T03:23:41;5.62;83.15
83102;SHT31;72973;51.784;4.660;2024-03-06T03:26:08;5.63;83.04
83102;SHT31;72973;51.784;4.660;2024-03-06T03:28:39;5.66;83.04
83102;SHT31;72973;51.784;4.660;2024-03-06T03:31:09;5.65;82.92
83102;SHT31;72973;51.784;4.660;2024-03-06T03:33:40;5.66;82.83
83102;SHT31;72973;51.784;4.660;2024-03-06T03:36:08;5.65;82.62
83102;SHT31;72973;51.784;4.660;2024-03-06T03:38:39;5.61;82.62
83102;SHT31;72973;51.784;4.660;2024-03-06T03:41:08;5.59;82.63
83102;SHT31;72973;51.784;4.660;2024-03-06T03:43:35;5.55;82.48
83102;SHT31;72973;51.784;4.660;2024-03-06T03:46:02;5.50;82.52
83102;SHT31;72973;51.784;4.660;2024-03-06T03:48:31;5.48;82.65
83102;SHT31;72973;51.784;4.660;2024-03-06T03:50:57;5.48;82.75
83102;SHT31;72973;51.784;4.660;2024-03-06T03:53:24;5.52;82.78
83102;SHT31;72973;51.784;4.660;2024-03-06T03:55:50;5.58;82.93
83102;SHT31;72973;51.784;4.660;2024-03-06T03:58:16;5.56;82.98
83102;SHT31;72973;51.784;4.660;2024-03-06T04:00:43;5.62;83.53
83102;SHT31;72973;51.784;4.660;2024-03-06T04:03:09;5.72;83.67
83102;SHT31;72973;51.784;4.660;2024-03-06T04:07:38;5.76;83.24
83102;SHT31;72973;51.784;4.660;2024-03-06T04:10:06;5.72;83.24
83102;SHT31;72973;51.784;4.660;2024-03-06T04:12:32;5.79;83.43
83102;SHT31;72973;51.784;4.660;2024-03-06T04:14:59;5.81;83.42
83102;SHT31;72973;51.784;4.660;2024-03-06T04:17:25;5.82;83.32
83102;SHT31;72973;51.784;4.660;2024-03-06T04:19:52;5.88;83.20
83102;SHT31;72973;51.784;4.660;2024-03-06T04:22:19;5.83;83.19
83102;SHT31;72973;51.784;4.660;2024-03-06T04:24:46;5.81;83.12
83102;SHT31;72973;51.784;4.660;2024-03-06T04:27:12;5.73;82.83
83102;SHT31;72973;51.784;4.660;2024-03-06T04:29:39;5.65;82.53
83102;SHT31;72973;51.784;4.660;2024-03-06T04:32:05;5.58;82.39
83102;SHT31;72973;51.784;4.660;2024-03-06T04:34:32;5.54;82.31
83102;SHT31;72973;51.784;4.660;2024-03-06T04:36:58;5.47;82.26
83102;SHT31;72973;51.784;4.660;2024-03-06T04:39:25;5.43;82.40
83102;SHT31;72973;51.784;4.660;2024-03-06T04:41:51;5.40;82.51
83102;SHT31;72973;51.784;4.660;2024-03-06T04:44:17;5.37;82.51
83102;SHT31;72973;51.784;4.660;2024-03-06T04:46:44;5.34;82.58
83102;SHT31;72973;51.784;4.660;2024-03-06T04:49:10;5.30;82.45
83102;SHT31;72973;51.784;4.660;2024-03-06T04:51:37;5.27;82.60
83102;SHT31;72973;51.784;4.660;2024-03-06T04:54:04;5.30;82.68
83102;SHT31;72973;51.784;4.660;2024-03-06T04:56:30;5.26;82.61
83102;SHT31;72973;51.784;4.660;2024-03-06T04:58:57;5.23;82.52
83102;SHT31;72973;51.784;4.660;2024-03-06T05:01:29;5.24;82.87
83102;SHT31;72973;51.784;4.660;2024-03-06T05:03:56;5.43;82.96
83102;SHT31;72973;51.784;4.660;2024-03-06T05:06:23;5.55;82.72
83102;SHT31;72973;51.784;4.660;2024-03-06T05:08:50;5.54;82.98
83102;SHT31;72973;51.784;4.660;2024-03-06T05:11:16;5.62;83.69
83102;SHT31;72973;51.784;4.660;2024-03-06T05:13:42;5.72;83.86
83102;SHT31;72973;51.784;4.660;2024-03-06T05:16:09;5.73;83.72
83102;SHT31;72973;51.784;4.660;2024-03-06T05:18:35;5.72;83.56
83102;SHT31;72973;51.784;4.660;2024-03-06T05:21:02;5.69;83.46
83102;SHT31;72973;51.784;4.660;2024-03-06T05:23:28;5.58;82.76
83102;SHT31;72973;51.784;4.660;2024-03-06T05:25:55;5.47;82.58
83102;SHT31;72973;51.784;4.660;2024-03-06T05:28:21;5.33;82.33
83102;SHT31;72973;51.784;4.660;2024-03-06T05:30:48;5.26;82.15
83102;SHT31;72973;51.784;4.660;2024-03-06T05:33:15;5.14;82.05
83102;SHT31;72973;51.784;4.660;2024-03-06T05:35:41;5.12;82.00
83102;SHT31;72973;51.784;4.660;2024-03-06T05:38:08;5.07;81.99
83102;SHT31;72973;51.784;4.660;2024-03-06T05:40:35;5.00;82.30
83102;SHT31;72973;51.784;4.660;2024-03-06T05:43:03;5.01;82.42
83102;SHT31;72973;51.784;4.660;2024-03-06T05:45:30;4.99;82.40
83102;SHT31;72973;51.784;4.660;2024-03-06T05:47:56;4.95;82.45
83102;SHT31;72973;51.784;4.660;2024-03-06T05:50:23;4.89;82.22
83102;SHT31;72973;51.784;4.660;2024-03-06T05:52:49;4.89;82.48
83102;SHT31;72973;51.784;4.660;2024-03-06T05:55:16;4.89;82.59
83102;SHT31;72973;51.784;4.660;2024-03-06T05:57:42;4.97;83.32
83102;SHT31;72973;51.784;4.660;2024-03-06T06:00:19;5.04;83.45
83102;SHT31;72973;51.784;4.660;2024-03-06T06:02:48;5.13;83.63
83102;SHT31;72973;51.784;4.660;2024-03-06T06:05:14;5.14;83.30
83102;SHT31;72973;51.784;4.660;2024-03-06T06:07:41;5.13;82.90
83102;SHT31;72973;51.784;4.660;2024-03-06T06:10:07;5.12;83.07
83102;SHT31;72973;51.784;4.660;2024-03-06T06:12:36;5.03;82.46
83102;SHT31;72973;51.784;4.660;2024-03-06T06:15:03;4.99;82.24
83102;SHT31;72973;51.784;4.660;2024-03-06T06:17:29;4.95;82.52
83102;SHT31;72973;51.784;4.660;2024-03-06T06:19:56;4.89;82.82
83102;SHT31;72973;51.784;4.660;2024-03-06T06:22:22;4.90;83.12
83102;SHT31;72973;51.784;4.660;2024-03-06T06:24:49;4.90;83.32
83102;SHT31;72973;51.784;4.660;2024-03-06T06:27:15;4.93;82.90
83102;SHT31;72973;51.784;4.660;2024-03-06T06:29:42;4.89;82.46
83102;SHT31;72973;51.784;4.660;2024-03-06T06:32:08;4.89;82.40
83102;SHT31;72973;51.784;4.660;2024-03-06T06:34:35;4.83;82.44
83102;SHT31;72973;51.784;4.660;2024-03-06T06:37:01;4.83;82.31
83102;SHT31;72973;51.784;4.660;2024-03-06T06:39:28;4.79;82.32
83102;SHT31;72973;51.784;4.660;2024-03-06T06:41:55;4.80;82.38
83102;SHT31;72973;51.784;4.660;2024-03-06T06:44:21;4.79;82.16
83102;SHT31;72973;51.784;4.660;2024-03-06T06:46:48;4.79;82.14
83102;SHT31;72973;51.784;4.660;2024-03-06T06:49:14;4.80;82.43
83102;SHT31;72973;51.784;4.660;2024-03-06T06:51:41;4.89;82.80
83102;SHT31;72973;51.784;4.660;2024-03-06T06:54:07;4.93;82.92
83102;SHT31;72973;51.784;4.660;2024-03-06T06:56:34;5.00;82.85
83102;SHT31;72973;51.784;4.660;2024-03-06T06:59:00;5.04;82.85
83102;SHT31;72973;51.784;4.660;2024-03-06T07:01:27;5.12;82.85
83102;SHT31;72973;51.784;4.660;2024-03-06T07:03:53;5.17;82.77
83102;SHT31;72973;51.784;4.660;2024-03-06T07:06:20;5.24;82.89
83102;SHT31;72973;51.784;4.660;2024-03-06T07:08:47;5.35;83.43
83102;SHT31;72973;51.784;4.660;2024-03-06T07:11:16;5.50;83.45
83102;SHT31;72973;51.784;4.660;2024-03-06T07:13:44;5.59;83.75
83102;SHT31;72973;51.784;4.660;2024-03-06T07:16:10;5.79;84.13
83102;SHT31;72973;51.784;4.660;2024-03-06T07:18:37;5.95;84.19
83102;SHT31;72973;51.784;4.660;2024-03-06T07:21:04;6.19;84.75
83102;SHT31;72973;51.784;4.660;2024-03-06T07:23:30;6.38;84.69
83102;SHT31;72973;51.784;4.660;2024-03-06T07:25:57;6.51;84.70
83102;SHT31;72973;51.784;4.660;2024-03-06T07:28:25;6.61;84.67
83102;SHT31;72973;51.784;4.660;2024-03-06T07:30:52;6.69;84.64
83102;SHT31;72973;51.784;4.660;2024-03-06T07:33:19;6.85;84.48
83102;SHT31;72973;51.784;4.660;2024-03-06T07:35:45;6.98;84.46
83102;SHT31;72973;51.784;4.660;2024-03-06T07:38:12;7.05;84.42
83102;SHT31;72973;51.784;4.660;2024-03-06T07:40:38;7.17;84.59
83102;SHT31;72973;51.784;4.660;2024-03-06T07:43:05;7.31;84.56
83102;SHT31;72973;51.784;4.660;2024-03-06T07:45:32;7.43;84.60
83102;SHT31;72973;51.784;4.660;2024-03-06T07:47:59;7.53;84.31
83102;SHT31;72973;51.784;4.660;2024-03-06T07:50:25;7.55;84.42
83102;SHT31;72973;51.784;4.660;2024-03-06T07:52:53;7.65;84.08
83102;SHT31;72973;51.784;4.660;2024-03-06T07:55:21;7.67;84.05
83102;SHT31;72973;51.784;4.660;2024-03-06T07:57:48;7.65;84.13
83102;SHT31;72973;51.784;4.660;2024-03-06T08:00:19;7.72;84.21
83102;SHT31;72973;51.784;4.660;2024-03-06T08:02:46;7.78;84.22
83102;SHT31;72973;51.784;4.660;2024-03-06T08:05:16;7.78;84.09
83102;SHT31;72973;51.784;4.660;2024-03-06T08:07:43;7.85;84.13
83102;SHT31;72973;51.784;4.660;2024-03-06T08:10:12;7.92;84.04
83102;SHT31;72973;51.784;4.660;2024-03-06T08:12:43;8.07;84.16
83102;SHT31;72973;51.784;4.660;2024-03-06T08:15:12;8.13;83.70
83102;SHT31;72973;51.784;4.660;2024-03-06T08:17:40;8.20;83.77
83102;SHT31;72973;51.784;4.660;2024-03-06T08:20:09;8.20;83.61
83102;SHT31;72973;51.784;4.660;2024-03-06T08:22:40;8.26;83.74
83102;SHT31;72973;51.784;4.660;2024-03-06T08:25:12;8.34;83.65
83102;SHT31;72973;51.784;4.660;2024-03-06T08:27:40;8.37;83.31
83102;SHT31;72973;51.784;4.660;2024-03-06T08:30:08;8.34;83.04
83102;SHT31;72973;51.784;4.660;2024-03-06T08:32:38;8.37;83.08
83102;SHT31;72973;51.784;4.660;2024-03-06T08:35:12;8.49;83.72
83102;SHT31;72973;51.784;4.660;2024-03-06T08:37:39;8.67;83.58
83102;SHT31;72973;51.784;4.660;2024-03-06T08:40:07;8.77;83.21
83102;SHT31;72973;51.784;4.660;2024-03-06T08:42:36;8.81;82.85
83102;SHT31;72973;51.784;4.660;2024-03-06T08:45:04;8.82;82.71
83102;SHT31;72973;51.784;4.660;2024-03-06T08:47:30;8.92;82.31
83102;SHT31;72973;51.784;4.660;2024-03-06T08:49:57;9.04;83.09
83102;SHT31;72973;51.784;4.660;2024-03-06T08:52:24;9.16;83.06
83102;SHT31;72973;51.784;4.660;2024-03-06T08:54:50;9.18;82.27
83102;SHT31;72973;51.784;4.660;2024-03-06T08:57:17;9.27;81.62
83102;SHT31;72973;51.784;4.660;2024-03-06T08:59:44;9.44;81.23
83102;SHT31;72973;51.784;4.660;2024-03-06T09:02:18;9.51;81.66
83102;SHT31;72973;51.784;4.660;2024-03-06T09:04:46;9.61;81.70
83102;SHT31;72973;51.784;4.660;2024-03-06T09:07:13;10.12;81.42
83102;SHT31;72973;51.784;4.660;2024-03-06T09:09:40;10.26;79.85
83102;SHT31;72973;51.784;4.660;2024-03-06T09:12:08;10.48;79.46
83102;SHT31;72973;51.784;4.660;2024-03-06T09:14:39;10.57;79.38
83102;SHT31;72973;51.784;4.660;2024-03-06T09:17:06;10.56;79.02
83102;SHT31;72973;51.784;4.660;2024-03-06T09:19:35;10.57;78.12
83102;SHT31;72973;51.784;4.660;2024-03-06T09:22:02;10.53;79.20
83102;SHT31;72973;51.784;4.660;2024-03-06T09:24:29;10.77;78.88
83102;SHT31;72973;51.784;4.660;2024-03-06T09:26:55;10.71;77.64
83102;SHT31;72973;51.784;4.660;2024-03-06T09:29:22;10.80;78.25
83102;SHT31;72973;51.784;4.660;2024-03-06T09:31:48;10.91;77.40
83102;SHT31;72973;51.784;4.660;2024-03-06T09:34:15;10.93;76.60
83102;SHT31;72973;51.784;4.660;2024-03-06T09:36:46;11.25;76.22
83102;SHT31;72973;51.784;4.660;2024-03-06T09:39:17;11.29;76.00
83102;SHT31;72973;51.784;4.660;2024-03-06T09:41:47;11.56;74.65
83102;SHT31;72973;51.784;4.660;2024-03-06T09:44:14;11.52;74.50
83102;SHT31;72973;51.784;4.660;2024-03-06T09:46:44;11.62;74.38
83102;SHT31;72973;51.784;4.660;2024-03-06T09:49:14;11.95;73.47
83102;SHT31;72973;51.784;4.660;2024-03-06T09:51:46;12.13;71.00
83102;SHT31;72973;51.784;4.660;2024-03-06T09:54:14;12.27;71.82
83102;SHT31;72973;51.784;4.660;2024-03-06T09:56:44;12.35;71.65
83102;SHT31;72973;51.784;4.660;2024-03-06T09:59:12;12.56;71.63
83102;SHT31;72973;51.784;4.660;2024-03-06T10:01:53;12.90;71.19
83102;SHT31;72973;51.784;4.660;2024-03-06T10:04:22;13.33;69.30
83102;SHT31;72973;51.784;4.660;2024-03-06T10:06:49;13.98;67.17
83102;SHT31;72973;51.784;4.660;2024-03-06T10:09:19;14.38;65.27
83102;SHT31;72973;51.784;4.660;2024-03-06T10:11:46;14.56;64.01
83102;SHT31;72973;51.784;4.660;2024-03-06T10:14:13;14.87;65.19
83102;SHT31;72973;51.784;4.660;2024-03-06T10:16:59;14.95;62.77
83102;SHT31;72973;51.784;4.660;2024-03-06T10:19:28;14.91;63.73
83102;SHT31;72973;51.784;4.660;2024-03-06T10:21:56;14.89;64.67
83102;SHT31;72973;51.784;4.660;2024-03-06T10:24:25;15.50;62.95
83102;SHT31;72973;51.784;4.660;2024-03-06T10:26:55;15.42;61.18
83102;SHT31;72973;51.784;4.660;2024-03-06T10:29:26;15.35;62.41
83102;SHT31;72973;51.784;4.660;2024-03-06T10:31:57;14.54;64.12
83102;SHT31;72973;51.784;4.660;2024-03-06T10:34:26;15.46;61.70
83102;SHT31;72973;51.784;4.660;2024-03-06T10:36:57;15.88;60.89
83102;SHT31;72973;51.784;4.660;2024-03-06T10:39:24;15.95;61.99
83102;SHT31;72973;51.784;4.660;2024-03-06T10:41:53;16.33;60.62
83102;SHT31;72973;51.784;4.660;2024-03-06T10:44:25;16.28;59.51
83102;SHT31;72973;51.784;4.660;2024-03-06T10:46:59;16.66;59.89
83102;SHT31;72973;51.784;4.660;2024-03-06T10:49:31;16.88;58.46
83102;SHT31;72973;51.784;4.660;2024-03-06T10:51:59;17.11;58.79
83102;SHT31;72973;51.784;4.660;2024-03-06T10:54:30;17.34;56.49
83102;SHT31;72973;51.784;4.660;2024-03-06T10:56:59;17.38;57.50
83102;SHT31;72973;51.784;4.660;2024-03-06T10:59:26;16.06;59.76
83102;SHT31;72973;51.784;4.660;2024-03-06T11:01:57;16.53;59.93
83102;SHT31;72973;51.784;4.660;2024-03-06T11:04:25;16.23;59.81
83102;SHT31;72973;51.784;4.660;2024-03-06T11:06:55;15.57;61.10
83102;SHT31;72973;51.784;4.660;2024-03-06T11:09:23;15.51;59.51
83102;SHT31;72973;51.784;4.660;2024-03-06T11:11:51;15.97;60.82
83102;SHT31;72973;51.784;4.660;2024-03-06T11:14:21;16.80;58.61
83102;SHT31;72973;51.784;4.660;2024-03-06T11:19:26;15.58;59.79
83102;SHT31;72973;51.784;4.660;2024-03-06T11:21:53;16.04;59.89
83102;SHT31;72973;51.784;4.660;2024-03-06T11:24:31;16.77;56.99
83102;SHT31;72973;51.784;4.660;2024-03-06T11:27:02;17.31;56.28
83102;SHT31;72973;51.784;4.660;2024-03-06T11:30:06;17.61;54.55
83102;SHT31;72973;51.784;4.660;2024-03-06T11:33:00;17.98;55.03
83102;SHT31;72973;51.784;4.660;2024-03-06T11:35:30;18.20;54.04
83102;SHT31;72973;51.784;4.660;2024-03-06T11:37:59;18.37;51.67
83102;SHT31;72973;51.784;4.660;2024-03-06T11:40:25;18.48;52.48
83102;SHT31;72973;51.784;4.660;2024-03-06T11:42:52;18.72;53.79
83102;SHT31;72973;51.784;4.660;2024-03-06T11:45:19;19.11;52.02
83102;SHT31;72973;51.784;4.660;2024-03-06T11:50:25;19.10;51.30
83102;SHT31;72973;51.784;4.660;2024-03-06T11:52:52;19.17;50.52
83102;SHT31;72973;51.784;4.660;2024-03-06T11:55:19;19.13;51.31
83102;SHT31;72973;51.784;4.660;2024-03-06T11:57:46;19.39;50.87
83102;SHT31;72973;51.784;4.660;2024-03-06T12:00:23;19.45;48.26
83102;SHT31;72973;51.784;4.660;2024-03-06T12:02:52;17.89;52.28
83102;SHT31;72973;51.784;4.660;2024-03-06T12:05:19;16.74;55.82
83102;SHT31;72973;51.784;4.660;2024-03-06T12:07:50;16.02;56.54
83102;SHT31;72973;51.784;4.660;2024-03-06T12:10:17;15.47;58.46
83102;SHT31;72973;51.784;4.660;2024-03-06T12:12:44;15.44;60.09
83102;SHT31;72973;51.784;4.660;2024-03-06T12:15:15;15.83;56.53
83102;SHT31;72973;51.784;4.660;2024-03-06T12:17:46;16.55;56.07
83102;SHT31;72973;51.784;4.660;2024-03-06T12:20:13;17.65;52.96
83102;SHT31;72973;51.784;4.660;2024-03-06T12:22:52;17.86;49.93
83102;SHT31;72973;51.784;4.660;2024-03-06T12:25:20;18.27;50.38
83102;SHT31;72973;51.784;4.660;2024-03-06T12:27:47;18.66;50.42
83102;SHT31;72973;51.784;4.660;2024-03-06T12:30:18;19.07;48.33
83102;SHT31;72973;51.784;4.660;2024-03-06T12:32:45;19.26;48.80
83102;SHT31;72973;51.784;4.660;2024-03-06T12:35:26;19.43;47.45
83102;SHT31;72973;51.784;4.660;2024-03-06T12:37:53;19.23;48.60
83102;SHT31;72973;51.784;4.660;2024-03-06T12:40:20;18.17;50.76
83102;SHT31;72973;51.784;4.660;2024-03-06T12:42:47;17.98;52.25
83102;SHT31;72973;51.784;4.660;2024-03-06T12:45:15;18.27;49.94
83102;SHT31;72973;51.784;4.660;2024-03-06T12:47:44;18.75;48.81
83102;SHT31;72973;51.784;4.660;2024-03-06T12:50:11;18.86;47.38
83102;SHT31;72973;51.784;4.660;2024-03-06T12:52:38;17.75;50.41
83102;SHT31;72973;51.784;4.660;2024-03-06T12:55:05;18.01;50.08
83102;SHT31;72973;51.784;4.660;2024-03-06T12:57:33;18.34;49.04
83102;SHT31;72973;51.784;4.660;2024-03-06T13:00:00;18.52;49.32
83102;SHT31;72973;51.784;4.660;2024-03-06T13:02:49;18.83;47.42
83102;SHT31;72973;51.784;4.660;2024-03-06T13:05:19;19.57;45.66
83102;SHT31;72973;51.784;4.660;2024-03-06T13:07:45;19.83;46.42
83102;SHT31;72973;51.784;4.660;2024-03-06T13:10:12;19.43;45.92
83102;SHT31;72973;51.784;4.660;2024-03-06T13:12:39;18.17;50.25
83102;SHT31;72973;51.784;4.660;2024-03-06T13:15:06;17.27;50.95
83102;SHT31;72973;51.784;4.660;2024-03-06T13:17:33;17.45;52.83
83102;SHT31;72973;51.784;4.660;2024-03-06T13:20:00;17.69;51.72
83102;SHT31;72973;51.784;4.660;2024-03-06T13:22:28;17.42;52.99
83102;SHT31;72973;51.784;4.660;2024-03-06T13:24:54;16.94;53.66
83102;SHT31;72973;51.784;4.660;2024-03-06T13:27:22;16.39;54.68
83102;SHT31;72973;51.784;4.660;2024-03-06T13:29:49;16.12;54.22
83102;SHT31;72973;51.784;4.660;2024-03-06T13:32:15;15.70;57.60
83102;SHT31;72973;51.784;4.660;2024-03-06T13:34:42;15.63;56.42
83102;SHT31;72973;51.784;4.660;2024-03-06T13:37:10;15.66;56.86
83102;SHT31;72973;51.784;4.660;2024-03-06T13:39:36;15.68;56.56
83102;SHT31;72973;51.784;4.660;2024-03-06T13:42:03;16.28;55.01
83102;SHT31;72973;51.784;4.660;2024-03-06T13:44:30;16.16;55.56
83102;SHT31;72973;51.784;4.660;2024-03-06T13:46:56;16.18;54.08
83102;SHT31;72973;51.784;4.660;2024-03-06T13:49:40;15.94;54.20
83102;SHT31;72973;51.784;4.660;2024-03-06T13:52:09;15.61;55.87
83102;SHT31;72973;51.784;4.660;2024-03-06T13:54:40;15.37;55.70
83102;SHT31;72973;51.784;4.660;2024-03-06T13:57:08;15.10;57.36
83102;SHT31;72973;51.784;4.660;2024-03-06T13:59:35;15.42;58.02
83102;SHT31;72973;51.784;4.660;2024-03-06T14:02:02;15.56;55.35
83102;SHT31;72973;51.784;4.660;2024-03-06T14:04:32;16.15;52.84
83102;SHT31;72973;51.784;4.660;2024-03-06T14:07:00;16.06;53.50
83102;SHT31;72973;51.784;4.660;2024-03-06T14:09:26;16.11;53.95
83102;SHT31;72973;51.784;4.660;2024-03-06T14:11:54;17.48;50.87
83102;SHT31;72973;51.784;4.660;2024-03-06T14:14:20;18.40;47.15
83102;SHT31;72973;51.784;4.660;2024-03-06T14:16:47;18.93;47.43
83102;SHT31;72973;51.784;4.660;2024-03-06T14:19:14;18.11;47.49
83102;SHT31;72973;51.784;4.660;2024-03-06T14:21:41;17.57;48.02
83102;SHT31;72973;51.784;4.660;2024-03-06T14:24:08;17.29;49.93
83102;SHT31;72973;51.784;4.660;2024-03-06T14:26:35;17.21;51.53
83102;SHT31;72973;51.784;4.660;2024-03-06T14:29:02;16.90;51.47
83102;SHT31;72973;51.784;4.660;2024-03-06T14:31:29;16.91;49.75
83102;SHT31;72973;51.784;4.660;2024-03-06T14:33:56;16.85;48.70
83102;SHT31;72973;51.784;4.660;2024-03-06T14:36:22;16.64;50.69
83102;SHT31;72973;51.784;4.660;2024-03-06T14:38:51;16.46;52.10
83102;SHT31;72973;51.784;4.660;2024-03-06T14:41:21;16.26;51.76
83102;SHT31;72973;51.784;4.660;2024-03-06T14:43:48;16.06;51.62
83102;SHT31;72973;51.784;4.660;2024-03-06T14:46:14;15.87;53.69
83102;SHT31;72973;51.784;4.660;2024-03-06T14:48:41;15.66;51.98
83102;SHT31;72973;51.784;4.660;2024-03-06T14:51:08;15.60;53.15
83102;SHT31;72973;51.784;4.660;2024-03-06T14:53:35;15.56;52.91
83102;SHT31;72973;51.784;4.660;2024-03-06T14:56:03;15.35;53.61
83102;SHT31;72973;51.784;4.660;2024-03-06T14:58:29;15.20;54.04
83102;SHT31;72973;51.784;4.660;2024-03-06T15:00:56;14.93;55.81
83102;SHT31;72973;51.784;4.660;2024-03-06T15:03:23;14.75;56.75
83102;SHT31;72973;51.784;4.660;2024-03-06T15:05:50;14.63;58.24
83102;SHT31;72973;51.784;4.660;2024-03-06T15:08:17;14.60;58.85
83102;SHT31;72973;51.784;4.660;2024-03-06T15:10:44;14.74;57.76
83102;SHT31;72973;51.784;4.660;2024-03-06T15:13:10;14.63;58.87
83102;SHT31;72973;51.784;4.660;2024-03-06T15:15:40;14.65;58.38
83102;SHT31;72973;51.784;4.660;2024-03-06T15:18:07;15.43;56.95
83102;SHT31;72973;51.784;4.660;2024-03-06T15:20:34;16.34;55.53
83102;SHT31;72973;51.784;4.660;2024-03-06T15:23:01;17.12;52.90
83102;SHT31;72973;51.784;4.660;2024-03-06T15:25:28;17.53;51.48
83102;SHT31;72973;51.784;4.660;2024-03-06T15:27:55;17.35;52.43
83102;SHT31;72973;51.784;4.660;2024-03-06T15:30:23;17.50;51.79
83102;SHT31;72973;51.784;4.660;2024-03-06T15:32:50;17.18;52.84
83102;SHT31;72973;51.784;4.660;2024-03-06T15:35:17;17.06;53.22
83102;SHT31;72973;51.784;4.660;2024-03-06T15:37:44;16.73;53.45
83102;SHT31;72973;51.784;4.660;2024-03-06T15:40:11;16.95;53.04
83102;SHT31;72973;51.784;4.660;2024-03-06T15:42:38;16.18;55.35
83102;SHT31;72973;51.784;4.660;2024-03-06T15:45:05;15.44;56.76
83102;SHT31;72973;51.784;4.660;2024-03-06T15:47:32;14.93;57.91
83102;SHT31;72973;51.784;4.660;2024-03-06T15:50:00;14.56;60.01
83102;SHT31;72973;51.784;4.660;2024-03-06T15:52:27;14.33;61.03